sensor_id;sensor_type;location;lat;lon;timestamp;temperature;humidity
42885;DHT22;28534;48.100;11.584;2024-02-15T00:00:49;22.10;54.50
42885;DHT22;28534;48.100;11.584;2024-02-15T00:01:52;22.10;54.50
42885;DHT22;28534;48.100;11.584;2024-02-15T00:02:53;22.10;54.50
42885;DHT22;28534;48.100;11.584;2024-02-15T00:03:54;22.10;54.40
42885;DHT22;28534;48.100;11.584;2024-02-15T00:04:55;22.00;54.40
42885;DHT22;28534;48.100;11.584;2024-02-15T00:05:57;22.00;54.50
42885;DHT22;28534;48.100;11.584;2024-02-15T00:06:57;22.20;54.60
42885;DHT22;28534;48.100;11.584;2024-02-15T00:08:00;22.10;54.50
42885;DHT22;28534;48.100;11.584;2024-02-15T00:09:00;22.20;54.60
42885;DHT22;28534;48.100;11.584;2024-02-15T00:10:02;22.10;54.60
42885;DHT22;28534;48.100;11.584;2024-02-15T00:11:04;22.10;54.50
42885;DHT22;28534;48.100;11.584;2024-02-15T00:12:05;22.10;54.60
42885;DHT22;28534;48.100;11.584;2024-02-15T00:13:06;22.10;54.50
42885;DHT22;28534;48.100;11.584;2024-02-15T00:14:08;22.10;54.50
42885;DHT22;28534;48.100;11.584;2024-02-15T00:15:10;22.10;54.50
42885;DHT22;28534;48.100;11.584;2024-02-15T00:16:13;22.10;54.50
42885;DHT22;28534;48.100;11.584;2024-02-15T00:17:13;22.10;54.50
42885;DHT22;28534;48.100;11.584;2024-02-15T00:18:15;22.10;54.40
42885;DHT22;28534;48.100;11.584;2024-02-15T00:19:16;22.20;54.50
42885;DHT22;28534;48.100;11.584;2024-02-15T00:20:18;22.10;54.40
42885;DHT22;28534;48.100;11.584;2024-02-15T00:21:20;22.10;54.40
42885;DHT22;28534;48.100;11.584;2024-02-15T00:22:22;22.20;54.40
42885;DHT22;28534;48.100;11.584;2024-02-15T00:23:22;22.10;54.30
42885;DHT22;28534;48.100;11.584;2024-02-15T00:24:24;22.20;54.50
42885;DHT22;28534;48.100;11.584;2024-02-15T00:25:25;22.20;54.40
42885;DHT22;28534;48.100;11.584;2024-02-15T00:26:27;22.30;54.30
42885;DHT22;28534;48.100;11.584;2024-02-15T00:27:27;22.20;54.10
42885;DHT22;28534;48.100;11.584;2024-02-15T00:28:29;22.30;54.20
42885;DHT22;28534;48.100;11.584;2024-02-15T00:29:30;22.40;54.30
42885;DHT22;28534;48.100;11.584;2024-02-15T00:30:33;22.30;54.50
42885;DHT22;28534;48.100;11.584;2024-02-15T00:31:35;22.30;54.30
42885;DHT22;28534;48.100;11.584;2024-02-15T00:32:36;22.30;54.30
42885;DHT22;28534;48.100;11.584;2024-02-15T00:33:38;22.30;54.40
42885;DHT22;28534;48.100;11.584;2024-02-15T00:34:38;22.40;54.50
42885;DHT22;28534;48.100;11.584;2024-02-15T00:35:40;22.10;54.40
42885;DHT22;28534;48.100;11.584;2024-02-15T00:36:41;22.20;54.50
42885;DHT22;28534;48.100;11.584;2024-02-15T00:37:43;22.20;54.50
42885;DHT22;28534;48.100;11.584;2024-02-15T00:38:44;22.20;54.50
42885;DHT22;28534;48.100;11.584;2024-02-15T00:39:46;22.20;54.50
42885;DHT22;28534;48.100;11.584;2024-02-15T00:40:46;22.40;54.60
42885;DHT22;28534;48.100;11.584;2024-02-15T00:41:48;22.20;54.60
42885;DHT22;28534;48.100;11.584;2024-02-15T00:42:49;22.20;54.60
42885;DHT22;28534;48.100;11.584;2024-02-15T00:43:50;22.20;54.60
42885;DHT22;28534;48.100;11.584;2024-02-15T00:44:51;22.20;54.60
42885;DHT22;28534;48.100;11.584;2024-02-15T00:45:54;22.20;54.60
42885;DHT22;28534;48.100;11.584;2024-02-15T00:46:54;22.30;54.60
42885;DHT22;28534;48.100;11.584;2024-02-15T00:47:56;22.30;54.70
42885;DHT22;28534;48.100;11.584;2024-02-15T00:48:57;22.20;54.60
42885;DHT22;28534;48.100;11.584;2024-02-15T00:50:00;22.20;54.70
42885;DHT22;28534;48.100;11.584;2024-02-15T00:51:00;22.20;54.70
42885;DHT22;28534;48.100;11.584;2024-02-15T00:52:02;22.20;54.70
42885;DHT22;28534;48.100;11.584;2024-02-15T00:53:03;22.20;54.70
42885;DHT22;28534;48.100;11.584;2024-02-15T00:54:04;22.10;54.70
42885;DHT22;28534;48.100;11.584;2024-02-15T00:55:05;22.20;54.80
42885;DHT22;28534;48.100;11.584;2024-02-15T00:56:07;22.10;54.70
42885;DHT22;28534;48.100;11.584;2024-02-15T00:57:07;22.20;54.80
42885;DHT22;28534;48.100;11.584;2024-02-15T00:58:09;22.20;54.80
42885;DHT22;28534;48.100;11.584;2024-02-15T00:59:09;22.10;54.80
42885;DHT22;28534;48.100;11.584;2024-02-15T01:00:11;22.20;54.90
42885;DHT22;28534;48.100;11.584;2024-02-15T01:01:14;22.10;54.80
42885;DHT22;28534;48.100;11.584;2024-02-15T01:02:16;22.10;54.80
42885;DHT22;28534;48.100;11.584;2024-02-15T01:03:18;22.10;54.80
42885;DHT22;28534;48.100;11.584;2024-02-15T01:04:19;22.30;55.00
42885;DHT22;28534;48.100;11.584;2024-02-15T01:05:20;22.10;54.80
42885;DHT22;28534;48.100;11.584;2024-02-15T01:06:22;22.20;54.90
42885;DHT22;28534;48.100;11.584;2024-02-15T01:07:22;22.30;55.00
42885;DHT22;28534;48.100;11.584;2024-02-15T01:08:27;22.20;54.90
42885;DHT22;28534;48.100;11.584;2024-02-15T01:09:28;22.10;54.90
42885;DHT22;28534;48.100;11.584;2024-02-15T01:10:30;22.10;54.90
42885;DHT22;28534;48.100;11.584;2024-02-15T01:11:31;22.10;55.00
42885;DHT22;28534;48.100;11.584;2024-02-15T01:12:33;22.10;55.00
42885;DHT22;28534;48.100;11.584;2024-02-15T01:13:34;22.10;55.00
42885;DHT22;28534;48.100;11.584;2024-02-15T01:14:35;22.00;55.00
42885;DHT22;28534;48.100;11.584;2024-02-15T01:15:36;22.10;55.00
42885;DHT22;28534;48.100;11.584;2024-02-15T01:16:41;22.10;55.00
42885;DHT22;28534;48.100;11.584;2024-02-15T01:17:41;22.10;55.00
42885;DHT22;28534;48.100;11.584;2024-02-15T01:18:43;22.10;55.00
42885;DHT22;28534;48.100;11.584;2024-02-15T01:19:43;22.00;55.00
42885;DHT22;28534;48.100;11.584;2024-02-15T01:20:45;22.10;55.00
42885;DHT22;28534;48.100;11.584;2024-02-15T01:21:46;22.10;55.00
42885;DHT22;28534;48.100;11.584;2024-02-15T01:22:47;22.10;55.00
42885;DHT22;28534;48.100;11.584;2024-02-15T01:23:48;22.20;55.10
42885;DHT22;28534;48.100;11.584;2024-02-15T01:24:50;22.10;55.00
42885;DHT22;28534;48.100;11.584;2024-02-15T01:25:51;22.20;55.10
42885;DHT22;28534;48.100;11.584;2024-02-15T01:26:53;22.00;55.00
42885;DHT22;28534;48.100;11.584;2024-02-15T01:27:53;22.10;55.00
42885;DHT22;28534;48.100;11.584;2024-02-15T01:28:55;22.10;55.00
42885;DHT22;28534;48.100;11.584;2024-02-15T01:29:56;22.00;55.00
42885;DHT22;28534;48.100;11.584;2024-02-15T01:30:57;22.30;55.20
42885;DHT22;28534;48.100;11.584;2024-02-15T01:31:59;22.20;55.10
42885;DHT22;28534;48.100;11.584;2024-02-15T01:33:02;22.10;55.00
42885;DHT22;28534;48.100;11.584;2024-02-15T01:34:02;22.10;55.10
42885;DHT22;28534;48.100;11.584;2024-02-15T01:35:04;22.00;55.00
42885;DHT22;28534;48.100;11.584;2024-02-15T01:36:05;22.10;55.10
42885;DHT22;28534;48.100;11.584;2024-02-15T01:37:07;22.10;55.00
42885;DHT22;28534;48.100;11.584;2024-02-15T01:38:07;22.10;55.10
42885;DHT22;28534;48.100;11.584;2024-02-15T01:39:09;22.10;55.10
42885;DHT22;28534;48.100;11.584;2024-02-15T01:40:10;22.10;55.10
42885;DHT22;28534;48.100;11.584;2024-02-15T01:41:13;22.10;55.10
42885;DHT22;28534;48.100;11.584;2024-02-15T01:42:13;22.10;55.10
42885;DHT22;28534;48.100;11.584;2024-02-15T01:43:15;22.20;55.10
42885;DHT22;28534;48.100;11.584;2024-02-15T01:44:16;22.10;55.10
42885;DHT22;28534;48.100;11.584;2024-02-15T01:45:18;22.00;55.10
42885;DHT22;28534;48.100;11.584;2024-02-15T01:46:20;22.00;55.10
42885;DHT22;28534;48.100;11.584;2024-02-15T01:47:22;22.10;55.10
42885;DHT22;28534;48.100;11.584;2024-02-15T01:48:23;22.20;55.20
42885;DHT22;28534;48.100;11.584;2024-02-15T01:49:25;22.10;55.10
42885;DHT22;28534;48.100;11.584;2024-02-15T01:50:27;22.00;55.10
42885;DHT22;28534;48.100;11.584;2024-02-15T01:51:28;22.00;55.10
42885;DHT22;28534;48.100;11.584;2024-02-15T01:52:30;22.00;55.20
42885;DHT22;28534;48.100;11.584;2024-02-15T01:53:31;22.30;55.30
42885;DHT22;28534;48.100;11.584;2024-02-15T01:54:34;22.00;55.20
42885;DHT22;28534;48.100;11.584;2024-02-15T01:55:37;22.00;55.20
42885;DHT22;28534;48.100;11.584;2024-02-15T01:56:40;22.10;55.20
42885;DHT22;28534;48.100;11.584;2024-02-15T01:57:40;22.00;55.20
42885;DHT22;28534;48.100;11.584;2024-02-15T01:58:45;21.90;55.10
42885;DHT22;28534;48.100;11.584;2024-02-15T01:59:46;22.20;55.30
42885;DHT22;28534;48.100;11.584;2024-02-15T02:00:47;22.00;55.10
42885;DHT22;28534;48.100;11.584;2024-02-15T02:01:48;22.00;55.10
42885;DHT22;28534;48.100;11.584;2024-02-15T02:02:52;22.00;55.20
42885;DHT22;28534;48.100;11.584;2024-02-15T02:03:53;22.10;55.30
42885;DHT22;28534;48.100;11.584;2024-02-15T02:04:55;22.10;55.30
42885;DHT22;28534;48.100;11.584;2024-02-15T02:05:56;22.10;55.30
42885;DHT22;28534;48.100;11.584;2024-02-15T02:06:57;22.00;55.30
42885;DHT22;28534;48.100;11.584;2024-02-15T02:07:59;22.00;55.20
42885;DHT22;28534;48.100;11.584;2024-02-15T02:09:04;22.00;55.30
42885;DHT22;28534;48.100;11.584;2024-02-15T02:10:05;22.10;55.30
42885;DHT22;28534;48.100;11.584;2024-02-15T02:11:06;22.00;55.30
42885;DHT22;28534;48.100;11.584;2024-02-15T02:12:08;22.00;55.20
42885;DHT22;28534;48.100;11.584;2024-02-15T02:13:09;22.00;55.20
42885;DHT22;28534;48.100;11.584;2024-02-15T02:14:11;22.00;55.20
42885;DHT22;28534;48.100;11.584;2024-02-15T02:15:12;22.00;55.10
42885;DHT22;28534;48.100;11.584;2024-02-15T02:16:25;22.10;55.20
42885;DHT22;28534;48.100;11.584;2024-02-15T02:17:27;22.10;55.00
42885;DHT22;28534;48.100;11.584;2024-02-15T02:18:30;22.10;55.00
42885;DHT22;28534;48.100;11.584;2024-02-15T02:19:31;22.30;54.90
42885;DHT22;28534;48.100;11.584;2024-02-15T02:20:33;22.20;54.80
42885;DHT22;28534;48.100;11.584;2024-02-15T02:21:35;22.20;54.70
42885;DHT22;28534;48.100;11.584;2024-02-15T02:22:36;22.30;54.60
42885;DHT22;28534;48.100;11.584;2024-02-15T02:23:38;22.30;54.60
42885;DHT22;28534;48.100;11.584;2024-02-15T02:24:40;22.30;54.50
42885;DHT22;28534;48.100;11.584;2024-02-15T02:25:47;22.30;54.40
42885;DHT22;28534;48.100;11.584;2024-02-15T02:26:49;22.40;54.40
42885;DHT22;28534;48.100;11.584;2024-02-15T02:27:51;22.40;54.30
42885;DHT22;28534;48.100;11.584;2024-02-15T02:28:51;22.30;54.20
42885;DHT22;28534;48.100;11.584;2024-02-15T02:29:54;22.40;54.20
42885;DHT22;28534;48.100;11.584;2024-02-15T02:30:56;22.40;54.10
42885;DHT22;28534;48.100;11.584;2024-02-15T02:31:58;22.40;54.20
42885;DHT22;28534;48.100;11.584;2024-02-15T02:32:58;22.40;54.20
42885;DHT22;28534;48.100;11.584;2024-02-15T02:33:59;22.40;54.30
42885;DHT22;28534;48.100;11.584;2024-02-15T02:35:01;22.30;54.30
42885;DHT22;28534;48.100;11.584;2024-02-15T02:36:01;22.40;54.30
42885;DHT22;28534;48.100;11.584;2024-02-15T02:37:03;22.40;54.50
42885;DHT22;28534;48.100;11.584;2024-02-15T02:38:05;22.40;54.40
42885;DHT22;28534;48.100;11.584;2024-02-15T02:39:07;22.40;55.10
42885;DHT22;28534;48.100;11.584;2024-02-15T02:40:08;22.30;54.40
42885;DHT22;28534;48.100;11.584;2024-02-15T02:41:11;22.30;54.50
42885;DHT22;28534;48.100;11.584;2024-02-15T02:42:13;22.40;54.60
42885;DHT22;28534;48.100;11.584;2024-02-15T02:43:14;22.30;54.60
42885;DHT22;28534;48.100;11.584;2024-02-15T02:44:15;22.30;54.60
42885;DHT22;28534;48.100;11.584;2024-02-15T02:45:15;22.10;54.60
42885;DHT22;28534;48.100;11.584;2024-02-15T02:46:17;22.40;54.80
42885;DHT22;28534;48.100;11.584;2024-02-15T02:47:18;22.20;54.70
42885;DHT22;28534;48.100;11.584;2024-02-15T02:48:19;22.20;54.80
42885;DHT22;28534;48.100;11.584;2024-02-15T02:49:20;22.40;54.90
42885;DHT22;28534;48.100;11.584;2024-02-15T02:50:21;22.30;54.90
42885;DHT22;28534;48.100;11.584;2024-02-15T02:51:23;22.10;54.80
42885;DHT22;28534;48.100;11.584;2024-02-15T02:52:24;22.20;54.80
42885;DHT22;28534;48.100;11.584;2024-02-15T02:53:25;22.20;54.90
42885;DHT22;28534;48.100;11.584;2024-02-15T02:54:25;22.10;54.90
42885;DHT22;28534;48.100;11.584;2024-02-15T02:55:27;22.20;54.90
42885;DHT22;28534;48.100;11.584;2024-02-15T02:56:29;22.00;54.90
42885;DHT22;28534;48.100;11.584;2024-02-15T02:57:30;22.30;55.00
42885;DHT22;28534;48.100;11.584;2024-02-15T02:58:32;22.20;55.00
42885;DHT22;28534;48.100;11.584;2024-02-15T02:59:33;22.10;55.00
42885;DHT22;28534;48.100;11.584;2024-02-15T03:00:34;22.20;55.00
42885;DHT22;28534;48.100;11.584;2024-02-15T03:01:37;22.10;55.00
42885;DHT22;28534;48.100;11.584;2024-02-15T03:02:40;22.10;55.00
42885;DHT22;28534;48.100;11.584;2024-02-15T03:03:41;22.10;55.00
42885;DHT22;28534;48.100;11.584;2024-02-15T03:04:43;22.10;55.00
42885;DHT22;28534;48.100;11.584;2024-02-15T03:05:44;22.10;55.00
42885;DHT22;28534;48.100;11.584;2024-02-15T03:06:45;22.10;55.00
42885;DHT22;28534;48.100;11.584;2024-02-15T03:07:48;22.20;55.10
42885;DHT22;28534;48.100;11.584;2024-02-15T03:08:49;22.10;55.10
42885;DHT22;28534;48.100;11.584;2024-02-15T03:09:54;22.10;55.00
42885;DHT22;28534;48.100;11.584;2024-02-15T03:10:55;22.10;55.10
42885;DHT22;28534;48.100;11.584;2024-02-15T03:11:57;22.00;55.00
42885;DHT22;28534;48.100;11.584;2024-02-15T03:12:58;22.10;55.10
42885;DHT22;28534;48.100;11.584;2024-02-15T03:14:00;22.10;55.10
42885;DHT22;28534;48.100;11.584;2024-02-15T03:15:00;22.10;55.10
42885;DHT22;28534;48.100;11.584;2024-02-15T03:16:02;22.20;55.20
42885;DHT22;28534;48.100;11.584;2024-02-15T03:17:03;22.10;55.10
42885;DHT22;28534;48.100;11.584;2024-02-15T03:18:04;22.10;55.10
42885;DHT22;28534;48.100;11.584;2024-02-15T03:19:07;22.10;55.10
42885;DHT22;28534;48.100;11.584;2024-02-15T03:20:11;22.20;55.20
42885;DHT22;28534;48.100;11.584;2024-02-15T03:21:20;22.00;55.10
42885;DHT22;28534;48.100;11.584;2024-02-15T03:22:21;22.00;55.10
42885;DHT22;28534;48.100;11.584;2024-02-15T03:23:24;22.00;55.10
42885;DHT22;28534;48.100;11.584;2024-02-15T03:24:26;22.00;55.10
42885;DHT22;28534;48.100;11.584;2024-02-15T03:25:27;22.00;55.10
42885;DHT22;28534;48.100;11.584;2024-02-15T03:26:30;22.10;55.20
42885;DHT22;28534;48.100;11.584;2024-02-15T03:27:32;22.30;55.20
42885;DHT22;28534;48.100;11.584;2024-02-15T03:28:34;22.10;55.20
42885;DHT22;28534;48.100;11.584;2024-02-15T03:29:36;22.10;55.80
42885;DHT22;28534;48.100;11.584;2024-02-15T03:30:38;22.10;55.20
42885;DHT22;28534;48.100;11.584;2024-02-15T03:31:39;22.10;55.10
42885;DHT22;28534;48.100;11.584;2024-02-15T03:32:40;22.20;55.20
42885;DHT22;28534;48.100;11.584;2024-02-15T03:33:41;22.20;55.30
42885;DHT22;28534;48.100;11.584;2024-02-15T03:34:43;22.00;55.20
42885;DHT22;28534;48.100;11.584;2024-02-15T03:35:44;22.00;55.20
42885;DHT22;28534;48.100;11.584;2024-02-15T03:36:45;22.10;55.20
42885;DHT22;28534;48.100;11.584;2024-02-15T03:37:47;22.00;55.20
42885;DHT22;28534;48.100;11.584;2024-02-15T03:38:51;21.90;55.10
42885;DHT22;28534;48.100;11.584;2024-02-15T03:39:54;22.00;55.20
42885;DHT22;28534;48.100;11.584;2024-02-15T03:40:55;22.00;55.20
42885;DHT22;28534;48.100;11.584;2024-02-15T03:41:56;21.90;55.10
42885;DHT22;28534;48.100;11.584;2024-02-15T03:43:00;22.00;55.30
42885;DHT22;28534;48.100;11.584;2024-02-15T03:44:01;22.00;55.30
42885;DHT22;28534;48.100;11.584;2024-02-15T03:45:02;21.90;55.20
42885;DHT22;28534;48.100;11.584;2024-02-15T03:46:03;22.00;55.30
42885;DHT22;28534;48.100;11.584;2024-02-15T03:47:04;22.00;55.30
42885;DHT22;28534;48.100;11.584;2024-02-15T03:48:05;22.00;55.20
42885;DHT22;28534;48.100;11.584;2024-02-15T03:49:07;22.00;55.20
42885;DHT22;28534;48.100;11.584;2024-02-15T03:50:08;22.20;55.20
42885;DHT22;28534;48.100;11.584;2024-02-15T03:51:10;22.00;55.20
42885;DHT22;28534;48.100;11.584;2024-02-15T03:52:11;22.00;55.20
42885;DHT22;28534;48.100;11.584;2024-02-15T03:53:12;22.00;55.20
42885;DHT22;28534;48.100;11.584;2024-02-15T03:54:14;22.00;55.20
42885;DHT22;28534;48.100;11.584;2024-02-15T03:55:15;22.00;55.20
42885;DHT22;28534;48.100;11.584;2024-02-15T03:56:16;22.00;55.20
42885;DHT22;28534;48.100;11.584;2024-02-15T03:57:17;21.90;55.10
42885;DHT22;28534;48.100;11.584;2024-02-15T03:58:22;22.10;55.30
42885;DHT22;28534;48.100;11.584;2024-02-15T03:59:23;21.90;55.10
42885;DHT22;28534;48.100;11.584;2024-02-15T04:00:27;22.30;55.30
42885;DHT22;28534;48.100;11.584;2024-02-15T04:01:27;22.00;55.10
42885;DHT22;28534;48.100;11.584;2024-02-15T04:02:32;22.00;55.10
42885;DHT22;28534;48.100;11.584;2024-02-15T04:03:34;22.00;55.20
42885;DHT22;28534;48.100;11.584;2024-02-15T04:04:35;22.10;55.20
42885;DHT22;28534;48.100;11.584;2024-02-15T04:05:37;22.10;55.30
42885;DHT22;28534;48.100;11.584;2024-02-15T04:06:38;22.00;55.20
42885;DHT22;28534;48.100;11.584;2024-02-15T04:07:41;22.10;55.20
42885;DHT22;28534;48.100;11.584;2024-02-15T04:08:44;22.00;55.20
42885;DHT22;28534;48.100;11.584;2024-02-15T04:09:44;22.10;55.10
42885;DHT22;28534;48.100;11.584;2024-02-15T04:10:46;22.20;55.00
42885;DHT22;28534;48.100;11.584;2024-02-15T04:11:47;22.20;54.90
42885;DHT22;28534;48.100;11.584;2024-02-15T04:12:53;22.20;54.80
42885;DHT22;28534;48.100;11.584;2024-02-15T04:13:55;22.20;54.60
42885;DHT22;28534;48.100;11.584;2024-02-15T04:14:58;22.40;54.50
42885;DHT22;28534;48.100;11.584;2024-02-15T04:16:05;22.40;54.50
42885;DHT22;28534;48.100;11.584;2024-02-15T04:17:06;22.40;54.50
42885;DHT22;28534;48.100;11.584;2024-02-15T04:18:07;22.40;54.50
42885;DHT22;28534;48.100;11.584;2024-02-15T04:19:08;22.40;54.50
42885;DHT22;28534;48.100;11.584;2024-02-15T04:20:10;22.40;54.30
42885;DHT22;28534;48.100;11.584;2024-02-15T04:21:12;22.40;54.30
42885;DHT22;28534;48.100;11.584;2024-02-15T04:22:13;22.50;54.40
42885;DHT22;28534;48.100;11.584;2024-02-15T04:23:16;21.70;53.90
42885;DHT22;28534;48.100;11.584;2024-02-15T04:24:19;22.60;54.30
42885;DHT22;28534;48.100;11.584;2024-02-15T04:25:21;22.50;54.20
42885;DHT22;28534;48.100;11.584;2024-02-15T04:26:28;22.50;54.20
42885;DHT22;28534;48.100;11.584;2024-02-15T04:27:30;22.50;54.10
42885;DHT22;28534;48.100;11.584;2024-02-15T04:28:31;22.70;54.20
42885;DHT22;28534;48.100;11.584;2024-02-15T04:29:35;22.60;54.10
42885;DHT22;28534;48.100;11.584;2024-02-15T04:30:36;22.60;53.90
42885;DHT22;28534;48.100;11.584;2024-02-15T04:31:40;22.60;53.80
42885;DHT22;28534;48.100;11.584;2024-02-15T04:32:42;22.80;53.80
42885;DHT22;28534;48.100;11.584;2024-02-15T04:33:45;22.80;53.80
42885;DHT22;28534;48.100;11.584;2024-02-15T04:34:49;22.80;53.70
42885;DHT22;28534;48.100;11.584;2024-02-15T04:35:51;22.90;53.80
42885;DHT22;28534;48.100;11.584;2024-02-15T04:36:52;22.70;53.60
42885;DHT22;28534;48.100;11.584;2024-02-15T04:37:55;22.80;53.60
42885;DHT22;28534;48.100;11.584;2024-02-15T04:38:56;22.90;53.60
42885;DHT22;28534;48.100;11.584;2024-02-15T04:39:58;22.90;53.50
42885;DHT22;28534;48.100;11.584;2024-02-15T04:40:59;22.90;53.50
42885;DHT22;28534;48.100;11.584;2024-02-15T04:42:00;23.00;53.50
42885;DHT22;28534;48.100;11.584;2024-02-15T04:43:01;22.90;53.50
42885;DHT22;28534;48.100;11.584;2024-02-15T04:44:04;22.90;53.50
42885;DHT22;28534;48.100;11.584;2024-02-15T04:45:10;22.90;53.50
42885;DHT22;28534;48.100;11.584;2024-02-15T04:46:14;22.90;53.40
42885;DHT22;28534;48.100;11.584;2024-02-15T04:47:14;22.90;53.40
42885;DHT22;28534;48.100;11.584;2024-02-15T04:48:15;23.00;53.40
42885;DHT22;28534;48.100;11.584;2024-02-15T04:49:17;22.90;53.30
42885;DHT22;28534;48.100;11.584;2024-02-15T04:50:19;22.90;53.90
42885;DHT22;28534;48.100;11.584;2024-02-15T04:51:21;23.00;53.30
42885;DHT22;28534;48.100;11.584;2024-02-15T04:52:22;23.00;53.30
42885;DHT22;28534;48.100;11.584;2024-02-15T04:53:24;23.00;53.20
42885;DHT22;28534;48.100;11.584;2024-02-15T04:54:25;23.10;53.20
42885;DHT22;28534;48.100;11.584;2024-02-15T04:55:26;23.10;53.20
42885;DHT22;28534;48.100;11.584;2024-02-15T04:56:31;23.00;53.20
42885;DHT22;28534;48.100;11.584;2024-02-15T04:57:33;23.20;53.20
42885;DHT22;28534;48.100;11.584;2024-02-15T04:58:37;23.10;53.10
42885;DHT22;28534;48.100;11.584;2024-02-15T04:59:37;23.10;53.10
42885;DHT22;28534;48.100;11.584;2024-02-15T05:00:40;23.10;53.10
42885;DHT22;28534;48.100;11.584;2024-02-15T05:01:42;23.10;53.10
42885;DHT22;28534;48.100;11.584;2024-02-15T05:02:44;23.10;53.10
42885;DHT22;28534;48.100;11.584;2024-02-15T05:03:45;23.30;53.20
42885;DHT22;28534;48.100;11.584;2024-02-15T05:04:47;23.30;53.10
42885;DHT22;28534;48.100;11.584;2024-02-15T05:05:47;23.20;53.00
42885;DHT22;28534;48.100;11.584;2024-02-15T05:06:49;23.20;53.10
42885;DHT22;28534;48.100;11.584;2024-02-15T05:07:50;23.30;53.10
42885;DHT22;28534;48.100;11.584;2024-02-15T05:08:52;23.30;53.10
42885;DHT22;28534;48.100;11.584;2024-02-15T05:09:52;23.30;53.40
42885;DHT22;28534;48.100;11.584;2024-02-15T05:10:53;23.40;53.60
42885;DHT22;28534;48.100;11.584;2024-02-15T05:11:59;23.40;53.60
42885;DHT22;28534;48.100;11.584;2024-02-15T05:12:59;23.40;53.70
42885;DHT22;28534;48.100;11.584;2024-02-15T05:14:01;23.40;53.70
42885;DHT22;28534;48.100;11.584;2024-02-15T05:15:03;23.50;54.50
42885;DHT22;28534;48.100;11.584;2024-02-15T05:16:11;23.40;53.80
42885;DHT22;28534;48.100;11.584;2024-02-15T05:17:12;23.40;54.00
42885;DHT22;28534;48.100;11.584;2024-02-15T05:18:14;23.40;54.00
42885;DHT22;28534;48.100;11.584;2024-02-15T05:19:14;23.50;54.20
42885;DHT22;28534;48.100;11.584;2024-02-15T05:20:16;23.40;54.20
42885;DHT22;28534;48.100;11.584;2024-02-15T05:21:17;23.50;54.30
42885;DHT22;28534;48.100;11.584;2024-02-15T05:22:18;23.60;54.30
42885;DHT22;28534;48.100;11.584;2024-02-15T05:23:19;23.50;54.30
42885;DHT22;28534;48.100;11.584;2024-02-15T05:24:20;23.50;54.50
42885;DHT22;28534;48.100;11.584;2024-02-15T05:25:21;23.40;54.50
42885;DHT22;28534;48.100;11.584;2024-02-15T05:26:23;23.50;54.80
42885;DHT22;28534;48.100;11.584;2024-02-15T05:27:24;23.50;54.70
42885;DHT22;28534;48.100;11.584;2024-02-15T05:28:26;23.50;54.80
42885;DHT22;28534;48.100;11.584;2024-02-15T05:29:27;23.40;54.90
42885;DHT22;28534;48.100;11.584;2024-02-15T05:30:28;23.50;54.90
42885;DHT22;28534;48.100;11.584;2024-02-15T05:31:33;23.40;55.00
42885;DHT22;28534;48.100;11.584;2024-02-15T05:32:41;23.50;55.10
42885;DHT22;28534;48.100;11.584;2024-02-15T05:33:44;23.50;55.10
42885;DHT22;28534;48.100;11.584;2024-02-15T05:34:44;23.60;55.10
42885;DHT22;28534;48.100;11.584;2024-02-15T05:35:46;23.70;55.10
42885;DHT22;28534;48.100;11.584;2024-02-15T05:36:50;23.50;55.10
42885;DHT22;28534;48.100;11.584;2024-02-15T05:37:52;23.50;55.10
42885;DHT22;28534;48.100;11.584;2024-02-15T05:38:53;23.60;55.20
42885;DHT22;28534;48.100;11.584;2024-02-15T05:39:55;23.60;55.10
42885;DHT22;28534;48.100;11.584;2024-02-15T05:40:55;23.60;54.90
42885;DHT22;28534;48.100;11.584;2024-02-15T05:41:57;23.60;54.70
42885;DHT22;28534;48.100;11.584;2024-02-15T05:43:01;23.60;54.60
42885;DHT22;28534;48.100;11.584;2024-02-15T05:44:02;23.60;54.60
42885;DHT22;28534;48.100;11.584;2024-02-15T05:46:25;23.60;54.50
42885;DHT22;28534;48.100;11.584;2024-02-15T05:47:29;23.70;54.60
42885;DHT22;28534;48.100;11.584;2024-02-15T05:48:30;23.70;54.80
42885;DHT22;28534;48.100;11.584;2024-02-15T05:49:31;23.60;55.00
42885;DHT22;28534;48.100;11.584;2024-02-15T05:50:33;23.60;54.90
42885;DHT22;28534;48.100;11.584;2024-02-15T05:51:34;23.70;54.90
42885;DHT22;28534;48.100;11.584;2024-02-15T05:52:35;23.60;54.90
42885;DHT22;28534;48.100;11.584;2024-02-15T05:53:37;23.80;55.10
42885;DHT22;28534;48.100;11.584;2024-02-15T05:54:37;23.70;55.10
42885;DHT22;28534;48.100;11.584;2024-02-15T05:55:39;23.70;55.10
42885;DHT22;28534;48.100;11.584;2024-02-15T05:56:44;23.70;55.30
42885;DHT22;28534;48.100;11.584;2024-02-15T05:57:52;23.60;55.40
42885;DHT22;28534;48.100;11.584;2024-02-15T05:58:53;23.60;55.50
42885;DHT22;28534;48.100;11.584;2024-02-15T05:59:54;23.60;55.40
42885;DHT22;28534;48.100;11.584;2024-02-15T06:00:55;23.70;55.40
42885;DHT22;28534;48.100;11.584;2024-02-15T06:02:01;23.60;55.40
42885;DHT22;28534;48.100;11.584;2024-02-15T06:03:04;23.60;55.50
42885;DHT22;28534;48.100;11.584;2024-02-15T06:04:06;23.60;55.70
42885;DHT22;28534;48.100;11.584;2024-02-15T06:05:09;23.60;55.70
42885;DHT22;28534;48.100;11.584;2024-02-15T06:06:10;23.70;55.60
42885;DHT22;28534;48.100;11.584;2024-02-15T06:07:12;23.70;55.60
42885;DHT22;28534;48.100;11.584;2024-02-15T06:08:13;23.70;55.30
42885;DHT22;28534;48.100;11.584;2024-02-15T06:09:15;23.70;55.30
42885;DHT22;28534;48.100;11.584;2024-02-15T06:10:15;23.70;55.30
42885;DHT22;28534;48.100;11.584;2024-02-15T06:11:18;23.50;55.40
42885;DHT22;28534;48.100;11.584;2024-02-15T06:12:20;23.70;55.60
42885;DHT22;28534;48.100;11.584;2024-02-15T06:13:21;23.70;55.70
42885;DHT22;28534;48.100;11.584;2024-02-15T06:14:23;23.70;55.70
42885;DHT22;28534;48.100;11.584;2024-02-15T06:15:23;23.80;55.70
42885;DHT22;28534;48.100;11.584;2024-02-15T06:16:25;23.60;55.60
42885;DHT22;28534;48.100;11.584;2024-02-15T06:17:26;23.70;55.30
42885;DHT22;28534;48.100;11.584;2024-02-15T06:18:29;23.90;55.40
42885;DHT22;28534;48.100;11.584;2024-02-15T06:19:32;23.70;55.20
42885;DHT22;28534;48.100;11.584;2024-02-15T06:20:33;23.70;54.90
42885;DHT22;28534;48.100;11.584;2024-02-15T06:21:34;23.80;54.10
42885;DHT22;28534;48.100;11.584;2024-02-15T06:22:35;23.80;53.60
42885;DHT22;28534;48.100;11.584;2024-02-15T06:23:38;23.80;53.60
42885;DHT22;28534;48.100;11.584;2024-02-15T06:24:39;23.70;53.60
42885;DHT22;28534;48.100;11.584;2024-02-15T06:25:41;23.70;53.60